Green Point — A8MZ6 — position and weather

sailwx.info

Track history (hours):
 
Tides and Currents Weather Stations Pressure Air Temp Water Temp Dewpoint Dewpoint Depression Visibility Wind Speed Wind Dir Waves Ship Positions

Green Point

Last reported at 2017-Oct-14 02:58 UTC. Time now 2017-Oct-17 11:51 UTC.
Position N 01°15' E 104°03'.

Length 183 m; draft 11.6 m.

Type: Tanker. MMSI: 636091389.

Date/timePositionNaut miles runAvg speedWind from/ knotsBaromVisibWave heightAir tempDewpointWater temp
2017-Oct-14 02:58N 01°15' E 104°03'1 2.9
2017-Oct-14 02:30N 01°15' E 104°02'2 3.0
2017-Oct-14 02:00N 01°14' E 104°00'2 3.1
2017-Oct-14 01:30N 01°14' E 103°59'2 3.0
2017-Oct-14 01:00N 01°14' E 103°57'1 2.9
2017-Oct-14 00:29N 01°13' E 103°56'1 2.9
2017-Oct-14 00:00N 01°13' E 103°55'2 3.1
2017-Oct-13 23:30N 01°12' E 103°53'2 3.1
2017-Oct-13 23:00N 01°11' E 103°52'2 3.2
2017-Oct-13 22:30N 01°11' E 103°50'17 2.3
2017-Oct-13 14:58N 01°15' E 104°07'613.9
2017-Oct-13 14:31N 01°14' E 104°01'713.7
2017-Oct-13 14:00N 01°12' E 103°54'714.8
2017-Oct-13 13:30N 01°09' E 103°48'713.9
2017-Oct-13 13:01N 01°04' E 103°42'510.7
2017-Oct-13 12:30N 01°04' E 103°37'511.0
2017-Oct-13 12:01N 01°07' E 103°33'510.8
2017-Oct-13 11:31N 01°13' E 103°33'3 5.1
2017-Oct-13 11:01N 01°15' E 103°35'0 0.4
2017-Oct-13 10:29N 01°15' E 103°35'0 0.1
2017-Oct-13 09:56N 01°15' E 103°35'0 0.1
2017-Oct-13 09:26N 01°15' E 103°35'0 0.0
2017-Oct-13 08:35N 01°15' E 103°35'0 0.0
2017-Oct-13 08:29N 01°15' E 103°35'0 0.0
2017-Oct-13 07:59N 01°15' E 103°35'0 0.0
2017-Oct-13 07:26N 01°15' E 103°35'0 0.1
2017-Oct-13 06:59N 01°15' E 103°35'0 0.1
2017-Oct-13 06:29N 01°15' E 103°35'0 0.0
2017-Oct-13 05:56N 01°15' E 103°35'0 0.0
2017-Oct-13 05:29N 01°15' E 103°35'0 0.1
2017-Oct-13 04:50N 01°15' E 103°35'0 0.2
2017-Oct-13 04:29N 01°15' E 103°35'0 0.1
2017-Oct-13 03:59N 01°15' E 103°34'0 0.0
2017-Oct-13 03:29N 01°15' E 103°34'0 0.0
2017-Oct-13 02:59N 01°15' E 103°34'0 0.0
2017-Oct-13 02:29N 01°15' E 103°34'0 0.1
2017-Oct-13 01:56N 01°15' E 103°34'0 0.0
2017-Oct-13 01:29N 01°15' E 103°34'0 0.0
2017-Oct-13 00:59N 01°15' E 103°34'0 0.1
2017-Oct-13 00:29N 01°15' E 103°34'0 0.1
2017-Oct-12 23:59N 01°15' E 103°34'0 0.2
2017-Oct-12 23:26N 01°15' E 103°35'0 0.1
2017-Oct-12 19:56N 01°15' E 103°35'0 0.0
2017-Oct-12 13:20N 01°15' E 103°35'0 0.1
2017-Oct-12 12:53N 01°15' E 103°35'0 0.1
2017-Oct-12 11:38N 01°15' E 103°35'0 0.1
2017-Oct-12 11:26N 01°15' E 103°35'0 0.1
2017-Oct-12 10:59N 01°15' E 103°35'0 0.0
2017-Oct-12 10:20N 01°15' E 103°35'0 0.0
2017-Oct-12 09:53N 01°15' E 103°35'0 0.0
2017-Oct-12 09:23N 01°15' E 103°35'0 0.0
2017-Oct-12 08:59N 01°15' E 103°35'0 0.1
2017-Oct-12 08:29N 01°15' E 103°35'0 0.1
2017-Oct-12 07:59N 01°15' E 103°35'0 0.1
2017-Oct-12 07:29N 01°15' E 103°35'0 0.1
2017-Oct-12 06:59N 01°15' E 103°35'0 0.1
2017-Oct-12 06:29N 01°15' E 103°35'0 0.1
2017-Oct-12 05:59N 01°15' E 103°35'0 0.1
2017-Oct-12 05:26N 01°15' E 103°35'0 0.0
2017-Oct-12 04:59N 01°15' E 103°35'0 0.0
2017-Oct-12 04:26N 01°15' E 103°35'0 0.0
2017-Oct-12 03:59N 01°15' E 103°35'0 0.1
2017-Oct-12 03:26N 01°15' E 103°35'0 0.1
2017-Oct-12 02:53N 01°15' E 103°35'0 0.2
2017-Oct-12 02:29N 01°15' E 103°34'0 0.1
2017-Oct-12 01:59N 01°15' E 103°34'0 0.1
2017-Oct-12 01:29N 01°15' E 103°34'0 0.1
2017-Oct-12 00:59N 01°15' E 103°34'0 0.1
2017-Oct-12 00:29N 01°15' E 103°34'0 0.1
2017-Oct-11 23:50N 01°15' E 103°34'0 0.2
2017-Oct-11 23:29N 01°15' E 103°34'1428.1
2017-Oct-11 23:00N 01°10' E 103°47'1 2.2
2017-Oct-11 22:29N 01°11' E 103°48'1 1.7
2017-Oct-11 21:59N 01°12' E 103°49'0 0.9
2017-Oct-11 21:30N 01°12' E 103°49'0 0.8
2017-Oct-11 20:59N 01°12' E 103°49'1 1.2
2017-Oct-11 20:30N 01°13' E 103°49'1 1.3
2017-Oct-11 20:00N 01°14' E 103°49'14 7.5
2017-Oct-11 18:08N 01°15' E 103°35'0 0.1
2017-Oct-11 17:56N 01°15' E 103°35'0 0.2
2017-Oct-11 17:29N 01°15' E 103°35'0 0.3
2017-Oct-11 17:01N 01°15' E 103°35'27 1.6
2017-Oct-11 00:00N 01°16' E 104°01'1324.4
2017-Oct-10 23:29N 01°14' E 103°49'0 0.0
2017-Oct-10 22:59N 01°14' E 103°49'0 0.1
2017-Oct-10 22:26N 01°14' E 103°49'0 0.0
2017-Oct-10 21:59N 01°14' E 103°49'0 0.0
2017-Oct-10 21:29N 01°14' E 103°49'0 0.1
2017-Oct-10 20:56N 01°14' E 103°49'0 0.0
2017-Oct-10 20:29N 01°14' E 103°49'0 0.2
2017-Oct-10 19:53N 01°14' E 103°49'0 0.2
2017-Oct-10 19:29N 01°14' E 103°49'0 0.1
2017-Oct-10 18:59N 01°14' E 103°49'0 0.1
2017-Oct-10 18:29N 01°14' E 103°49'0 1.0
2017-Oct-10 18:00N 01°13' E 103°49'3 6.7
2017-Oct-10 17:30N 01°13' E 103°52'611.8
2017-Oct-10 17:00N 01°15' E 103°58'5 8.2
2017-Oct-10 16:26N 01°16' E 104°02'  
Track history (hours):
 
Tides and Currents Weather Stations Pressure Air Temp Water Temp Dewpoint Dewpoint Depression Visibility Wind Speed Wind Dir Waves Ship Positions

Green Point

Last reported at 2017-Oct-14 02:58 UTC. Time now 2017-Oct-17 11:51 UTC.
Position N 01°15' E 104°03'.

Length 183 m; draft 11.6 m.

Type: Tanker. MMSI: 636091389.

Date/timePositionNaut miles runAvg speedWind from/ knotsBaromVisibWave heightAir tempDewpointWater temp
2017-Oct-14 02:58N 01°15' E 104°03'1 2.9
2017-Oct-14 02:30N 01°15' E 104°02'2 3.0
2017-Oct-14 02:00N 01°14' E 104°00'2 3.1
2017-Oct-14 01:30N 01°14' E 103°59'2 3.0
2017-Oct-14 01:00N 01°14' E 103°57'1 2.9
2017-Oct-14 00:29N 01°13' E 103°56'1 2.9
2017-Oct-14 00:00N 01°13' E 103°55'2 3.1
2017-Oct-13 23:30N 01°12' E 103°53'2 3.1
2017-Oct-13 23:00N 01°11' E 103°52'2 3.2
2017-Oct-13 22:30N 01°11' E 103°50'17 2.3
2017-Oct-13 14:58N 01°15' E 104°07'613.9
2017-Oct-13 14:31N 01°14' E 104°01'713.7
2017-Oct-13 14:00N 01°12' E 103°54'714.8
2017-Oct-13 13:30N 01°09' E 103°48'713.9
2017-Oct-13 13:01N 01°04' E 103°42'510.7
2017-Oct-13 12:30N 01°04' E 103°37'511.0
2017-Oct-13 12:01N 01°07' E 103°33'510.8
2017-Oct-13 11:31N 01°13' E 103°33'3 5.1
2017-Oct-13 11:01N 01°15' E 103°35'0 0.4
2017-Oct-13 10:29N 01°15' E 103°35'0 0.1
2017-Oct-13 09:56N 01°15' E 103°35'0 0.1
2017-Oct-13 09:26N 01°15' E 103°35'0 0.0
2017-Oct-13 08:35N 01°15' E 103°35'0 0.0
2017-Oct-13 08:29N 01°15' E 103°35'0 0.0
2017-Oct-13 07:59N 01°15' E 103°35'0 0.0
2017-Oct-13 07:26N 01°15' E 103°35'0 0.1
2017-Oct-13 06:59N 01°15' E 103°35'0 0.1
2017-Oct-13 06:29N 01°15' E 103°35'0 0.0
2017-Oct-13 05:56N 01°15' E 103°35'0 0.0
2017-Oct-13 05:29N 01°15' E 103°35'0 0.1
2017-Oct-13 04:50N 01°15' E 103°35'0 0.2
2017-Oct-13 04:29N 01°15' E 103°35'0 0.1
2017-Oct-13 03:59N 01°15' E 103°34'0 0.0
2017-Oct-13 03:29N 01°15' E 103°34'0 0.0
2017-Oct-13 02:59N 01°15' E 103°34'0 0.0
2017-Oct-13 02:29N 01°15' E 103°34'0 0.1
2017-Oct-13 01:56N 01°15' E 103°34'0 0.0
2017-Oct-13 01:29N 01°15' E 103°34'0 0.0
2017-Oct-13 00:59N 01°15' E 103°34'0 0.1
2017-Oct-13 00:29N 01°15' E 103°34'0 0.1
2017-Oct-12 23:59N 01°15' E 103°34'0 0.2
2017-Oct-12 23:26N 01°15' E 103°35'0 0.1
2017-Oct-12 19:56N 01°15' E 103°35'0 0.0
2017-Oct-12 13:20N 01°15' E 103°35'0 0.1
2017-Oct-12 12:53N 01°15' E 103°35'0 0.1
2017-Oct-12 11:38N 01°15' E 103°35'0 0.1
2017-Oct-12 11:26N 01°15' E 103°35'0 0.1
2017-Oct-12 10:59N 01°15' E 103°35'0 0.0
2017-Oct-12 10:20N 01°15' E 103°35'0 0.0
2017-Oct-12 09:53N 01°15' E 103°35'0 0.0
2017-Oct-12 09:23N 01°15' E 103°35'0 0.0
2017-Oct-12 08:59N 01°15' E 103°35'0 0.1
2017-Oct-12 08:29N 01°15' E 103°35'0 0.1
2017-Oct-12 07:59N 01°15' E 103°35'0 0.1
2017-Oct-12 07:29N 01°15' E 103°35'0 0.1
2017-Oct-12 06:59N 01°15' E 103°35'0 0.1
2017-Oct-12 06:29N 01°15' E 103°35'0 0.1
2017-Oct-12 05:59N 01°15' E 103°35'0 0.1
2017-Oct-12 05:26N 01°15' E 103°35'0 0.0
2017-Oct-12 04:59N 01°15' E 103°35'0 0.0
2017-Oct-12 04:26N 01°15' E 103°35'0 0.0
2017-Oct-12 03:59N 01°15' E 103°35'0 0.1
2017-Oct-12 03:26N 01°15' E 103°35'0 0.1
2017-Oct-12 02:53N 01°15' E 103°35'0 0.2
2017-Oct-12 02:29N 01°15' E 103°34'0 0.1
2017-Oct-12 01:59N 01°15' E 103°34'0 0.1
2017-Oct-12 01:29N 01°15' E 103°34'0 0.1
2017-Oct-12 00:59N 01°15' E 103°34'0 0.1
2017-Oct-12 00:29N 01°15' E 103°34'0 0.1
2017-Oct-11 23:50N 01°15' E 103°34'0 0.2
2017-Oct-11 23:29N 01°15' E 103°34'1428.1
2017-Oct-11 23:00N 01°10' E 103°47'1 2.2
2017-Oct-11 22:29N 01°11' E 103°48'1 1.7
2017-Oct-11 21:59N 01°12' E 103°49'0 0.9
2017-Oct-11 21:30N 01°12' E 103°49'0 0.8
2017-Oct-11 20:59N 01°12' E 103°49'1 1.2
2017-Oct-11 20:30N 01°13' E 103°49'1 1.3
2017-Oct-11 20:00N 01°14' E 103°49'14 7.5
2017-Oct-11 18:08N 01°15' E 103°35'0 0.1
2017-Oct-11 17:56N 01°15' E 103°35'0 0.2
2017-Oct-11 17:29N 01°15' E 103°35'0 0.3
2017-Oct-11 17:01N 01°15' E 103°35'27 1.6
2017-Oct-11 00:00N 01°16' E 104°01'1324.4
2017-Oct-10 23:29N 01°14' E 103°49'0 0.0
2017-Oct-10 22:59N 01°14' E 103°49'0 0.1
2017-Oct-10 22:26N 01°14' E 103°49'0 0.0
2017-Oct-10 21:59N 01°14' E 103°49'0 0.0
2017-Oct-10 21:29N 01°14' E 103°49'0 0.1
2017-Oct-10 20:56N 01°14' E 103°49'0 0.0
2017-Oct-10 20:29N 01°14' E 103°49'0 0.2
2017-Oct-10 19:53N 01°14' E 103°49'0 0.2
2017-Oct-10 19:29N 01°14' E 103°49'0 0.1
2017-Oct-10 18:59N 01°14' E 103°49'0 0.1
2017-Oct-10 18:29N 01°14' E 103°49'0 1.0
2017-Oct-10 18:00N 01°13' E 103°49'3 6.7
2017-Oct-10 17:30N 01°13' E 103°52'611.8
2017-Oct-10 17:00N 01°15' E 103°58'5 8.2
2017-Oct-10 16:26N 01°16' E 104°02'  

Dump ship's entire track history